sensor_id;sensor_type;location;lat;lon;timestamp;pressure;altitude;pressure_sealevel;temperature;humidity
18784;BME280;9520;50.954;6.968;2022-07-24T00:00:09;101372.94;;;28.17;39.30
18784;BME280;9520;50.954;6.968;2022-07-24T00:00:35;101369.38;;;28.17;39.41
18784;BME280;9520;50.954;6.968;2022-07-24T00:00:58;101363.19;;;28.15;39.65
18784;BME280;9520;50.954;6.968;2022-07-24T00:01:20;101366.00;;;28.13;39.10
18784;BME280;9520;50.954;6.968;2022-07-24T00:01:42;101363.78;;;28.07;39.19
18784;BME280;9520;50.954;6.968;2022-07-24T00:02:05;101366.22;;;28.10;39.43
18784;BME280;9520;50.954;6.968;2022-07-24T00:02:27;101363.53;;;28.10;39.42
18784;BME280;9520;50.954;6.968;2022-07-24T00:02:49;101372.53;;;28.11;39.70
18784;BME280;9520;50.954;6.968;2022-07-24T00:03:10;101368.94;;;28.10;39.35
18784;BME280;9520;50.954;6.968;2022-07-24T00:03:32;101364.50;;;28.09;39.56
18784;BME280;9520;50.954;6.968;2022-07-24T00:03:57;101364.38;;;28.11;39.25
18784;BME280;9520;50.954;6.968;2022-07-24T00:04:18;101368.00;;;28.11;38.85
18784;BME280;9520;50.954;6.968;2022-07-24T00:04:40;101361.69;;;28.11;39.13
18784;BME280;9520;50.954;6.968;2022-07-24T00:05:02;101364.38;;;28.11;39.20
18784;BME280;9520;50.954;6.968;2022-07-24T00:05:25;101374.47;;;28.09;39.41
18784;BME280;9520;50.954;6.968;2022-07-24T00:05:47;101369.06;;;28.09;39.11
18784;BME280;9520;50.954;6.968;2022-07-24T00:06:09;101370.78;;;28.10;39.38
18784;BME280;9520;50.954;6.968;2022-07-24T00:06:30;101371.75;;;28.09;39.36
18784;BME280;9520;50.954;6.968;2022-07-24T00:06:53;101368.06;;;28.10;39.57
18784;BME280;9520;50.954;6.968;2022-07-24T00:07:15;101369.81;;;28.11;39.56
18784;BME280;9520;50.954;6.968;2022-07-24T00:07:37;101375.25;;;28.11;39.12
18784;BME280;9520;50.954;6.968;2022-07-24T00:07:58;101376.13;;;28.11;39.36
18784;BME280;9520;50.954;6.968;2022-07-24T00:08:21;101372.41;;;28.12;39.78
18784;BME280;9520;50.954;6.968;2022-07-24T00:08:43;101365.28;;;28.11;39.35
18784;BME280;9520;50.954;6.968;2022-07-24T00:09:06;101365.47;;;28.08;39.46
18784;BME280;9520;50.954;6.968;2022-07-24T00:09:29;101370.47;;;28.14;39.14
18784;BME280;9520;50.954;6.968;2022-07-24T00:09:52;101375.88;;;28.14;39.43
18784;BME280;9520;50.954;6.968;2022-07-24T00:10:14;101369.59;;;28.14;39.58
18784;BME280;9520;50.954;6.968;2022-07-24T00:10:36;101382.06;;;28.16;39.78
18784;BME280;9520;50.954;6.968;2022-07-24T00:10:59;101371.22;;;28.16;39.52
18784;BME280;9520;50.954;6.968;2022-07-24T00:11:21;101370.22;;;28.17;39.35
18784;BME280;9520;50.954;6.968;2022-07-24T00:11:42;101366.53;;;28.18;39.21
18784;BME280;9520;50.954;6.968;2022-07-24T00:12:05;101372.19;;;28.15;39.45
18784;BME280;9520;50.954;6.968;2022-07-24T00:12:27;101379.47;;;28.15;39.39
18784;BME280;9520;50.954;6.968;2022-07-24T00:12:49;101371.44;;;28.13;39.61
18784;BME280;9520;50.954;6.968;2022-07-24T00:13:11;101368.72;;;28.13;39.18
18784;BME280;9520;50.954;6.968;2022-07-24T00:13:33;101373.19;;;28.14;39.61
18784;BME280;9520;50.954;6.968;2022-07-24T00:13:56;101375.88;;;28.14;39.01
18784;BME280;9520;50.954;6.968;2022-07-24T00:14:17;101366.88;;;28.14;39.51
18784;BME280;9520;50.954;6.968;2022-07-24T00:14:39;101370.47;;;28.14;39.55
18784;BME280;9520;50.954;6.968;2022-07-24T00:15:02;101374.91;;;28.15;39.61
18784;BME280;9520;50.954;6.968;2022-07-24T00:15:24;101373.75;;;28.07;39.34
18784;BME280;9520;50.954;6.968;2022-07-24T00:15:47;101364.59;;;28.08;39.13
18784;BME280;9520;50.954;6.968;2022-07-24T00:16:09;101366.34;;;28.09;39.21
18784;BME280;9520;50.954;6.968;2022-07-24T00:16:32;101376.22;;;28.10;39.14
18784;BME280;9520;50.954;6.968;2022-07-24T00:16:54;101369.94;;;28.09;39.60
18784;BME280;9520;50.954;6.968;2022-07-24T00:17:15;101367.22;;;28.09;39.64
18784;BME280;9520;50.954;6.968;2022-07-24T00:17:37;101378.06;;;28.09;39.23
18784;BME280;9520;50.954;6.968;2022-07-24T00:18:00;101364.50;;;28.09;39.07
18784;BME280;9520;50.954;6.968;2022-07-24T00:18:22;101369.81;;;28.11;39.24
18784;BME280;9520;50.954;6.968;2022-07-24T00:18:45;101358.81;;;28.01;39.46
18784;BME280;9520;50.954;6.968;2022-07-24T00:19:08;101372.53;;;28.11;39.51
18784;BME280;9520;50.954;6.968;2022-07-24T00:19:30;101373.50;;;28.10;39.30
18784;BME280;9520;50.954;6.968;2022-07-24T00:19:51;101376.13;;;28.11;39.27
18784;BME280;9520;50.954;6.968;2022-07-24T00:20:13;101369.94;;;28.09;39.70
18784;BME280;9520;50.954;6.968;2022-07-24T00:20:36;101363.00;;;28.05;39.60
18784;BME280;9520;50.954;6.968;2022-07-24T00:20:58;101370.03;;;28.08;39.67
18784;BME280;9520;50.954;6.968;2022-07-24T00:21:20;101373.63;;;28.08;39.75
18784;BME280;9520;50.954;6.968;2022-07-24T00:21:42;101373.63;;;28.08;39.05
18784;BME280;9520;50.954;6.968;2022-07-24T00:22:04;101374.63;;;28.07;39.02
18784;BME280;9520;50.954;6.968;2022-07-24T00:22:26;101369.19;;;28.07;38.95
18784;BME280;9520;50.954;6.968;2022-07-24T00:22:48;101378.53;;;28.03;39.09
18784;BME280;9520;50.954;6.968;2022-07-24T00:23:10;101370.28;;;28.05;39.22
18784;BME280;9520;50.954;6.968;2022-07-24T00:23:32;101370.28;;;28.05;39.29
18784;BME280;9520;50.954;6.968;2022-07-24T00:23:54;101372.13;;;28.04;38.95
18784;BME280;9520;50.954;6.968;2022-07-24T00:24:17;101375.19;;;28.00;39.26
18784;BME280;9520;50.954;6.968;2022-07-24T00:24:39;101375.19;;;28.00;39.15
18784;BME280;9520;50.954;6.968;2022-07-24T00:25:01;101381.59;;;27.99;38.86
18784;BME280;9520;50.954;6.968;2022-07-24T00:25:22;101376.41;;;27.96;38.96
18784;BME280;9520;50.954;6.968;2022-07-24T00:25:45;101380.00;;;27.96;38.85
18784;BME280;9520;50.954;6.968;2022-07-24T00:26:07;101373.59;;;27.97;38.71
18784;BME280;9520;50.954;6.968;2022-07-24T00:26:28;101373.72;;;27.96;38.80
18784;BME280;9520;50.954;6.968;2022-07-24T00:26:50;101378.25;;;27.95;38.72
18784;BME280;9520;50.954;6.968;2022-07-24T00:27:13;101356.50;;;27.84;38.78
18784;BME280;9520;50.954;6.968;2022-07-24T00:27:35;101374.78;;;27.93;38.61
18784;BME280;9520;50.954;6.968;2022-07-24T00:27:56;101372.06;;;27.93;38.27
18784;BME280;9520;50.954;6.968;2022-07-24T00:28:18;101375.56;;;27.95;38.63
18784;BME280;9520;50.954;6.968;2022-07-24T00:28:41;101372.84;;;27.95;38.63
18784;BME280;9520;50.954;6.968;2022-07-24T00:29:03;101375.78;;;27.92;38.83
18784;BME280;9520;50.954;6.968;2022-07-24T00:29:26;101369.50;;;27.91;38.68
18784;BME280;9520;50.954;6.968;2022-07-24T00:30:41;101364.09;;;27.91;39.23
18784;BME280;9520;50.954;6.968;2022-07-24T00:31:05;101368.63;;;27.91;39.03
18784;BME280;9520;50.954;6.968;2022-07-24T00:31:27;101366.78;;;27.91;39.29
18784;BME280;9520;50.954;6.968;2022-07-24T00:31:54;101371.22;;;27.92;39.84
18784;BME280;9520;50.954;6.968;2022-07-24T00:32:16;101358.25;;;27.85;39.76
18784;BME280;9520;50.954;6.968;2022-07-24T00:32:39;101367.88;;;27.89;39.37
18784;BME280;9520;50.954;6.968;2022-07-24T00:33:00;101354.78;;;27.83;39.46
18784;BME280;9520;50.954;6.968;2022-07-24T00:33:22;101369.72;;;27.88;39.42
18784;BME280;9520;50.954;6.968;2022-07-24T00:33:44;101371.47;;;27.89;38.99
18784;BME280;9520;50.954;6.968;2022-07-24T00:34:07;101367.16;;;27.87;39.12
18784;BME280;9520;50.954;6.968;2022-07-24T00:34:28;101367.16;;;27.87;38.86
18784;BME280;9520;50.954;6.968;2022-07-24T00:34:50;101370.06;;;27.84;39.48
18784;BME280;9520;50.954;6.968;2022-07-24T00:35:12;101370.22;;;27.82;39.74
18784;BME280;9520;50.954;6.968;2022-07-24T00:35:34;101371.75;;;27.74;39.04
18784;BME280;9520;50.954;6.968;2022-07-24T00:35:57;101361.03;;;27.72;38.85
18784;BME280;9520;50.954;6.968;2022-07-24T00:36:19;101371.75;;;27.74;39.18
18784;BME280;9520;50.954;6.968;2022-07-24T00:36:41;101371.53;;;27.77;39.16
18784;BME280;9520;50.954;6.968;2022-07-24T00:37:04;101367.81;;;27.78;38.75
18784;BME280;9520;50.954;6.968;2022-07-24T00:37:27;101368.59;;;27.80;39.24
18784;BME280;9520;50.954;6.968;2022-07-24T00:37:49;101366.84;;;27.79;39.43
18784;BME280;9520;50.954;6.968;2022-07-24T00:38:10;101368.19;;;27.73;39.63
18784;BME280;9520;50.954;6.968;2022-07-24T00:38:32;101365.59;;;27.72;39.60
18784;BME280;9520;50.954;6.968;2022-07-24T00:38:54;101368.31;;;27.72;39.28
18784;BME280;9520;50.954;6.968;2022-07-24T00:39:17;101359.41;;;27.70;39.58
18784;BME280;9520;50.954;6.968;2022-07-24T00:39:38;101368.94;;;27.75;39.73
18784;BME280;9520;50.954;6.968;2022-07-24T00:40:00;101370.03;;;27.73;39.79
18784;BME280;9520;50.954;6.968;2022-07-24T00:40:22;101365.59;;;27.72;40.12
18784;BME280;9520;50.954;6.968;2022-07-24T00:40:44;101360.19;;;27.72;39.95
18784;BME280;9520;50.954;6.968;2022-07-24T00:41:06;101364.59;;;27.73;40.00
18784;BME280;9520;50.954;6.968;2022-07-24T00:41:28;101363.75;;;27.72;40.01
18784;BME280;9520;50.954;6.968;2022-07-24T00:41:50;101361.88;;;27.73;39.83
18784;BME280;9520;50.954;6.968;2022-07-24T00:42:15;101365.59;;;27.72;39.91
18784;BME280;9520;50.954;6.968;2022-07-24T00:42:37;101367.19;;;27.74;39.60
18784;BME280;9520;50.954;6.968;2022-07-24T00:42:59;101360.91;;;27.74;40.06
18784;BME280;9520;50.954;6.968;2022-07-24T00:43:22;101367.19;;;27.74;40.13
18784;BME280;9520;50.954;6.968;2022-07-24T00:44:03;101359.06;;;27.74;40.04
18784;BME280;9520;50.954;6.968;2022-07-24T00:44:27;101358.97;;;27.76;39.82
18784;BME280;9520;50.954;6.968;2022-07-24T00:44:49;101362.66;;;27.75;39.74
18784;BME280;9520;50.954;6.968;2022-07-24T00:45:10;101358.97;;;27.76;39.96
18784;BME280;9520;50.954;6.968;2022-07-24T00:45:46;101366.13;;;27.77;39.97
18784;BME280;9520;50.954;6.968;2022-07-24T00:46:09;101365.47;;;27.73;39.60
18784;BME280;9520;50.954;6.968;2022-07-24T00:46:32;101360.03;;;27.73;39.88
18784;BME280;9520;50.954;6.968;2022-07-24T00:46:54;101359.06;;;27.74;39.61
18784;BME280;9520;50.954;6.968;2022-07-24T00:47:20;101357.22;;;27.75;39.88
18784;BME280;9520;50.954;6.968;2022-07-24T00:47:42;101343.59;;;27.64;39.77
18784;BME280;9520;50.954;6.968;2022-07-24T00:48:04;101365.47;;;27.73;40.31
18784;BME280;9520;50.954;6.968;2022-07-24T00:48:28;101361.88;;;27.73;40.24
18784;BME280;9520;50.954;6.968;2022-07-24T00:48:51;101361.88;;;27.73;39.56
18784;BME280;9520;50.954;6.968;2022-07-24T00:49:15;101360.03;;;27.73;40.09
18784;BME280;9520;50.954;6.968;2022-07-24T00:49:38;101358.34;;;27.72;40.03
18784;BME280;9520;50.954;6.968;2022-07-24T00:50:00;101359.06;;;27.74;39.83
18784;BME280;9520;50.954;6.968;2022-07-24T00:50:25;101355.72;;;27.71;39.85
18784;BME280;9520;50.954;6.968;2022-07-24T00:50:47;101364.59;;;27.73;39.80
18784;BME280;9520;50.954;6.968;2022-07-24T00:51:09;101355.47;;;27.74;39.56
18784;BME280;9520;50.954;6.968;2022-07-24T00:51:31;101360.91;;;27.74;39.76
18784;BME280;9520;50.954;6.968;2022-07-24T00:51:54;101358.19;;;27.74;40.27
18784;BME280;9520;50.954;6.968;2022-07-24T00:52:16;101362.75;;;27.73;39.93
18784;BME280;9520;50.954;6.968;2022-07-24T00:52:37;101363.63;;;27.74;40.20
18784;BME280;9520;50.954;6.968;2022-07-24T00:52:59;101359.16;;;27.73;40.19
18784;BME280;9520;50.954;6.968;2022-07-24T00:53:22;101367.19;;;27.74;40.10
18784;BME280;9520;50.954;6.968;2022-07-24T00:53:44;101362.66;;;27.75;40.31
18784;BME280;9520;50.954;6.968;2022-07-24T00:54:07;101359.94;;;27.75;40.04
18784;BME280;9520;50.954;6.968;2022-07-24T00:54:29;101362.53;;;27.76;40.28
18784;BME280;9520;50.954;6.968;2022-07-24T00:54:52;101360.69;;;27.77;40.40
18784;BME280;9520;50.954;6.968;2022-07-24T00:55:14;101357.97;;;27.77;40.07
18784;BME280;9520;50.954;6.968;2022-07-24T00:55:37;101355.28;;;27.77;39.95
18784;BME280;9520;50.954;6.968;2022-07-24T00:55:58;101353.53;;;27.76;39.70
18784;BME280;9520;50.954;6.968;2022-07-24T00:56:21;101359.94;;;27.75;40.66
18784;BME280;9520;50.954;6.968;2022-07-24T00:56:45;101359.94;;;27.75;40.32
18784;BME280;9520;50.954;6.968;2022-07-24T00:57:06;101361.66;;;27.76;40.28
18784;BME280;9520;50.954;6.968;2022-07-24T00:57:31;101362.66;;;27.75;40.46
18784;BME280;9520;50.954;6.968;2022-07-24T00:57:54;101363.50;;;27.75;39.68
18784;BME280;9520;50.954;6.968;2022-07-24T00:58:16;101354.50;;;27.75;40.11
18784;BME280;9520;50.954;6.968;2022-07-24T00:58:37;101358.09;;;27.75;39.90
18784;BME280;9520;50.954;6.968;2022-07-24T00:58:59;101364.59;;;27.73;40.19
18784;BME280;9520;50.954;6.968;2022-07-24T00:59:23;101366.34;;;27.74;39.96
18784;BME280;9520;50.954;6.968;2022-07-24T00:59:45;101362.66;;;27.75;40.20
18784;BME280;9520;50.954;6.968;2022-07-24T01:00:08;101359.16;;;27.73;40.11
18784;BME280;9520;50.954;6.968;2022-07-24T01:00:30;101360.03;;;27.73;40.24
18784;BME280;9520;50.954;6.968;2022-07-24T01:00:52;101363.63;;;27.74;40.48
18784;BME280;9520;50.954;6.968;2022-07-24T01:01:17;101364.59;;;27.73;40.14
18784;BME280;9520;50.954;6.968;2022-07-24T01:01:40;101367.31;;;27.73;40.17
18784;BME280;9520;50.954;6.968;2022-07-24T01:02:02;101362.03;;;27.71;39.99
18784;BME280;9520;50.954;6.968;2022-07-24T01:02:24;101358.44;;;27.71;40.62
18784;BME280;9520;50.954;6.968;2022-07-24T01:02:47;101358.34;;;27.72;40.63
18784;BME280;9520;50.954;6.968;2022-07-24T01:03:09;101358.44;;;27.71;40.33
18784;BME280;9520;50.954;6.968;2022-07-24T01:03:31;101356.81;;;27.68;40.41
18784;BME280;9520;50.954;6.968;2022-07-24T01:03:54;101368.53;;;27.69;40.66
18784;BME280;9520;50.954;6.968;2022-07-24T01:04:17;101358.53;;;27.69;40.08
18784;BME280;9520;50.954;6.968;2022-07-24T01:04:39;101364.13;;;27.68;40.09
18784;BME280;9520;50.954;6.968;2022-07-24T01:05:08;101365.81;;;27.69;40.42
18784;BME280;9520;50.954;6.968;2022-07-24T01:05:30;101372.97;;;27.70;40.33
18784;BME280;9520;50.954;6.968;2022-07-24T01:05:52;101354.44;;;27.64;40.44
18784;BME280;9520;50.954;6.968;2022-07-24T01:06:14;101358.69;;;27.68;41.02
18784;BME280;9520;50.954;6.968;2022-07-24T01:06:36;101359.66;;;27.67;40.10
18784;BME280;9520;50.954;6.968;2022-07-24T01:06:58;101366.94;;;27.66;39.91
18784;BME280;9520;50.954;6.968;2022-07-24T01:07:20;101367.78;;;27.67;39.98
18784;BME280;9520;50.954;6.968;2022-07-24T01:07:42;101356.53;;;27.60;39.61
18784;BME280;9520;50.954;6.968;2022-07-24T01:08:05;101362.47;;;27.65;39.89
18784;BME280;9520;50.954;6.968;2022-07-24T01:08:28;101364.22;;;27.66;39.96
18784;BME280;9520;50.954;6.968;2022-07-24T01:08:50;101363.34;;;27.66;39.85
18784;BME280;9520;50.954;6.968;2022-07-24T01:09:12;101370.50;;;27.67;40.34
18784;BME280;9520;50.954;6.968;2022-07-24T01:09:36;101366.81;;;27.68;40.12
18784;BME280;9520;50.954;6.968;2022-07-24T01:09:58;101366.06;;;27.66;39.99
18784;BME280;9520;50.954;6.968;2022-07-24T01:10:20;101365.09;;;27.67;39.84
18784;BME280;9520;50.954;6.968;2022-07-24T01:10:42;101364.31;;;27.65;40.21
18784;BME280;9520;50.954;6.968;2022-07-24T01:11:05;101367.91;;;27.65;40.27
18784;BME280;9520;50.954;6.968;2022-07-24T01:11:33;101360.75;;;27.64;39.74
18784;BME280;9520;50.954;6.968;2022-07-24T01:11:56;101364.22;;;27.66;39.87
18784;BME280;9520;50.954;6.968;2022-07-24T01:12:18;101366.06;;;27.66;39.99
18784;BME280;9520;50.954;6.968;2022-07-24T01:12:41;101361.63;;;27.65;39.67
18784;BME280;9520;50.954;6.968;2022-07-24T01:13:03;101363.34;;;27.66;40.03
18784;BME280;9520;50.954;6.968;2022-07-24T01:13:27;101365.09;;;27.67;39.66
18784;BME280;9520;50.954;6.968;2022-07-24T01:13:51;101360.63;;;27.66;39.83
18784;BME280;9520;50.954;6.968;2022-07-24T01:14:13;101368.53;;;27.69;40.01
18784;BME280;9520;50.954;6.968;2022-07-24T01:14:36;101365.09;;;27.67;39.81
18784;BME280;9520;50.954;6.968;2022-07-24T01:14:58;101365.09;;;27.67;39.70
18784;BME280;9520;50.954;6.968;2022-07-24T01:15:21;101362.94;;;27.59;39.57
18784;BME280;9520;50.954;6.968;2022-07-24T01:15:43;101374.66;;;27.60;39.44
18784;BME280;9520;50.954;6.968;2022-07-24T01:16:05;101366.41;;;27.61;40.23
18784;BME280;9520;50.954;6.968;2022-07-24T01:16:28;101369.00;;;27.63;40.34
18784;BME280;9520;50.954;6.968;2022-07-24T01:16:51;101364.66;;;27.60;40.39
18784;BME280;9520;50.954;6.968;2022-07-24T01:17:13;101361.09;;;27.60;39.93
18784;BME280;9520;50.954;6.968;2022-07-24T01:17:37;101369.22;;;27.60;39.67
18784;BME280;9520;50.954;6.968;2022-07-24T01:18:01;101371.94;;;27.60;40.32
18784;BME280;9520;50.954;6.968;2022-07-24T01:18:23;101365.78;;;27.58;40.32
18784;BME280;9520;50.954;6.968;2022-07-24T01:18:45;101365.78;;;27.58;40.28
18784;BME280;9520;50.954;6.968;2022-07-24T01:19:06;101373.06;;;27.57;40.71
18784;BME280;9520;50.954;6.968;2022-07-24T01:19:29;101368.59;;;27.56;40.31
18784;BME280;9520;50.954;6.968;2022-07-24T01:19:51;101368.69;;;27.55;39.91
18784;BME280;9520;50.954;6.968;2022-07-24T01:20:13;101364.50;;;27.51;39.67
18784;BME280;9520;50.954;6.968;2022-07-24T01:20:37;101364.50;;;27.51;39.82
18784;BME280;9520;50.954;6.968;2022-07-24T01:20:59;101361.69;;;27.52;39.70
18784;BME280;9520;50.954;6.968;2022-07-24T01:21:21;101362.56;;;27.53;40.02
18784;BME280;9520;50.954;6.968;2022-07-24T01:21:46;101371.41;;;27.55;39.82
18784;BME280;9520;50.954;6.968;2022-07-24T01:22:08;101365.88;;;27.56;40.14
18784;BME280;9520;50.954;6.968;2022-07-24T01:22:31;101364.03;;;27.57;40.29
18784;BME280;9520;50.954;6.968;2022-07-24T01:22:53;101365.03;;;27.56;40.12
18784;BME280;9520;50.954;6.968;2022-07-24T01:23:15;101365.03;;;27.56;40.22
18784;BME280;9520;50.954;6.968;2022-07-24T01:23:37;101364.91;;;27.57;40.49
18784;BME280;9520;50.954;6.968;2022-07-24T01:24:00;101364.78;;;27.59;40.20
18784;BME280;9520;50.954;6.968;2022-07-24T01:24:22;101365.78;;;27.58;40.00
18784;BME280;9520;50.954;6.968;2022-07-24T01:24:43;101365.78;;;27.58;40.09
18784;BME280;9520;50.954;6.968;2022-07-24T01:25:05;101359.84;;;27.53;40.29
18784;BME280;9520;50.954;6.968;2022-07-24T01:25:29;101370.34;;;27.57;40.24
18784;BME280;9520;50.954;6.968;2022-07-24T01:25:51;101364.16;;;27.55;40.44
18784;BME280;9520;50.954;6.968;2022-07-24T01:26:12;101369.56;;;27.55;40.25
18784;BME280;9520;50.954;6.968;2022-07-24T01:26:34;101366.00;;;27.55;40.07
18784;BME280;9520;50.954;6.968;2022-07-24T01:26:57;101359.06;;;27.51;39.60
18784;BME280;9520;50.954;6.968;2022-07-24T01:27:19;101362.75;;;27.49;40.22
18784;BME280;9520;50.954;6.968;2022-07-24T01:27:41;101360.16;;;27.48;40.60
18784;BME280;9520;50.954;6.968;2022-07-24T01:28:03;101367.31;;;27.49;40.00
18784;BME280;9520;50.954;6.968;2022-07-24T01:28:26;101365.56;;;27.48;40.23
18784;BME280;9520;50.954;6.968;2022-07-24T01:28:47;101364.72;;;27.47;40.51
18784;BME280;9520;50.954;6.968;2022-07-24T01:29:09;101367.75;;;27.43;40.17
18784;BME280;9520;50.954;6.968;2022-07-24T01:29:31;101360.47;;;27.43;39.73
18784;BME280;9520;50.954;6.968;2022-07-24T01:29:53;101362.22;;;27.44;39.66
18784;BME280;9520;50.954;6.968;2022-07-24T01:30:15;101364.03;;;27.44;39.92
18784;BME280;9520;50.954;6.968;2022-07-24T01:30:37;101357.75;;;27.43;39.96
18784;BME280;9520;50.954;6.968;2022-07-24T01:30:59;101360.59;;;27.42;40.84
18784;BME280;9520;50.954;6.968;2022-07-24T01:31:21;101363.19;;;27.43;40.63
18784;BME280;9520;50.954;6.968;2022-07-24T01:31:44;101360.94;;;27.37;40.25
18784;BME280;9520;50.954;6.968;2022-07-24T01:32:06;101362.66;;;27.38;39.61
18784;BME280;9520;50.954;6.968;2022-07-24T01:32:28;101361.69;;;27.39;39.95
18784;BME280;9520;50.954;6.968;2022-07-24T01:32:49;101364.28;;;27.41;39.73
18784;BME280;9520;50.954;6.968;2022-07-24T01:33:13;101372.31;;;27.42;39.47
18784;BME280;9520;50.954;6.968;2022-07-24T01:33:36;101366.91;;;27.42;39.77
18784;BME280;9520;50.954;6.968;2022-07-24T01:33:58;101364.03;;;27.44;40.00
18784;BME280;9520;50.954;6.968;2022-07-24T01:34:19;101372.31;;;27.42;39.69
18784;BME280;9520;50.954;6.968;2022-07-24T01:34:41;101366.91;;;27.42;39.61
18784;BME280;9520;50.954;6.968;2022-07-24T01:35:05;101361.56;;;27.41;39.25
18784;BME280;9520;50.954;6.968;2022-07-24T01:35:27;101360.59;;;27.42;39.58
18784;BME280;9520;50.954;6.968;2022-07-24T01:35:50;101373.91;;;27.45;39.49
18784;BME280;9520;50.954;6.968;2022-07-24T01:36:13;101365.78;;;27.45;39.50
18784;BME280;9520;50.954;6.968;2022-07-24T01:36:36;101372.94;;;27.46;40.00
18784;BME280;9520;50.954;6.968;2022-07-24T01:36:57;101368.41;;;27.46;40.10
18784;BME280;9520;50.954;6.968;2022-07-24T01:37:19;101364.91;;;27.44;40.57
18784;BME280;9520;50.954;6.968;2022-07-24T01:37:41;101366.75;;;27.44;40.68
18784;BME280;9520;50.954;6.968;2022-07-24T01:38:03;101368.59;;;27.43;41.10
18784;BME280;9520;50.954;6.968;2022-07-24T01:38:25;101365.25;;;27.40;40.82
18784;BME280;9520;50.954;6.968;2022-07-24T01:38:47;101361.69;;;27.39;40.60
18784;BME280;9520;50.954;6.968;2022-07-24T01:39:10;101365.16;;;27.41;40.78
18784;BME280;9520;50.954;6.968;2022-07-24T01:39:33;101364.28;;;27.41;40.83
18784;BME280;9520;50.954;6.968;2022-07-24T01:39:54;101360.72;;;27.40;40.89
18784;BME280;9520;50.954;6.968;2022-07-24T01:40:16;101364.28;;;27.41;40.57
18784;BME280;9520;50.954;6.968;2022-07-24T01:40:38;101368.84;;;27.40;40.60
18784;BME280;9520;50.954;6.968;2022-07-24T01:41:00;101366.03;;;27.42;40.69
18784;BME280;9520;50.954;6.968;2022-07-24T01:41:22;101357.03;;;27.41;40.70
18784;BME280;9520;50.954;6.968;2022-07-24T01:41:44;101360.72;;;27.40;41.09
18784;BME280;9520;50.954;6.968;2022-07-24T01:42:06;101359.13;;;27.38;40.17
18784;BME280;9520;50.954;6.968;2022-07-24T01:42:28;101358.34;;;27.36;40.54
18784;BME280;9520;50.954;6.968;2022-07-24T01:42:49;101361.94;;;27.36;41.16
18784;BME280;9520;50.954;6.968;2022-07-24T01:43:12;101355.63;;;27.36;40.67
18784;BME280;9520;50.954;6.968;2022-07-24T01:43:34;101355.63;;;27.36;40.77
18784;BME280;9520;50.954;6.968;2022-07-24T01:43:55;101359.31;;;27.35;41.14
18784;BME280;9520;50.954;6.968;2022-07-24T01:44:17;101359.22;;;27.36;40.84
18784;BME280;9520;50.954;6.968;2022-07-24T01:44:40;101361.94;;;27.36;41.17
18784;BME280;9520;50.954;6.968;2022-07-24T01:45:02;101354.25;;;27.30;40.94
18784;BME280;9520;50.954;6.968;2022-07-24T01:45:24;101359.56;;;27.32;40.78
18784;BME280;9520;50.954;6.968;2022-07-24T01:45:46;101360.28;;;27.34;40.70
18784;BME280;9520;50.954;6.968;2022-07-24T01:46:08;101362.13;;;27.33;40.24
18784;BME280;9520;50.954;6.968;2022-07-24T01:46:31;101356.72;;;27.33;39.68
18784;BME280;9520;50.954;6.968;2022-07-24T01:46:53;101360.53;;;27.31;40.12
18784;BME280;9520;50.954;6.968;2022-07-24T01:47:14;101358.69;;;27.31;40.02
18784;BME280;9520;50.954;6.968;2022-07-24T01:47:36;101352.31;;;27.32;39.98
18784;BME280;9520;50.954;6.968;2022-07-24T01:47:59;101357.47;;;27.35;40.71
18784;BME280;9520;50.954;6.968;2022-07-24T01:48:21;101354.00;;;27.33;41.15
18784;BME280;9520;50.954;6.968;2022-07-24T01:48:43;101354.00;;;27.33;41.06
18784;BME280;9520;50.954;6.968;2022-07-24T01:49:05;101363.88;;;27.34;41.38
18784;BME280;9520;50.954;6.968;2022-07-24T01:49:30;101358.44;;;27.34;40.69
18784;BME280;9520;50.954;6.968;2022-07-24T01:49:51;101353.91;;;27.35;40.76
18784;BME280;9520;50.954;6.968;2022-07-24T01:50:13;101354.00;;;27.33;40.23
18784;BME280;9520;50.954;6.968;2022-07-24T01:50:35;101361.16;;;27.34;39.92
18784;BME280;9520;50.954;6.968;2022-07-24T01:50:59;101356.72;;;27.33;40.62
18784;BME280;9520;50.954;6.968;2022-07-24T01:51:21;101353.16;;;27.33;40.56
18784;BME280;9520;50.954;6.968;2022-07-24T01:51:43;101352.31;;;27.32;40.75
18784;BME280;9520;50.954;6.968;2022-07-24T01:52:04;101353.16;;;27.33;41.01
18784;BME280;9520;50.954;6.968;2022-07-24T01:52:27;101362.13;;;27.33;40.51
18784;BME280;9520;50.954;6.968;2022-07-24T01:52:49;101350.47;;;27.33;41.41
18784;BME280;9520;50.954;6.968;2022-07-24T01:53:11;101348.59;;;27.33;40.86
18784;BME280;9520;50.954;6.968;2022-07-24T01:53:32;101332.38;;;27.21;40.44
18784;BME280;9520;50.954;6.968;2022-07-24T01:53:55;101354.00;;;27.33;40.47
18784;BME280;9520;50.954;6.968;2022-07-24T01:54:17;101334.22;;;27.20;40.49
18784;BME280;9520;50.954;6.968;2022-07-24T01:54:38;101359.56;;;27.32;40.49
18784;BME280;9520;50.954;6.968;2022-07-24T01:55:01;101349.59;;;27.32;40.84
18784;BME280;9520;50.954;6.968;2022-07-24T01:55:23;101347.84;;;27.31;40.95
18784;BME280;9520;50.954;6.968;2022-07-24T01:55:45;101349.59;;;27.32;40.62
18784;BME280;9520;50.954;6.968;2022-07-24T01:56:06;101357.81;;;27.31;41.46
18784;BME280;9520;50.954;6.968;2022-07-24T01:56:31;101353.28;;;27.31;40.86
18784;BME280;9520;50.954;6.968;2022-07-24T01:56:54;101356.94;;;27.30;41.20
18784;BME280;9520;50.954;6.968;2022-07-24T01:57:15;101350.81;;;27.28;40.54
18784;BME280;9520;50.954;6.968;2022-07-24T01:57:40;101349.16;;;27.26;40.55
18784;BME280;9520;50.954;6.968;2022-07-24T01:58:02;101348.19;;;27.27;40.70
18784;BME280;9520;50.954;6.968;2022-07-24T01:58:23;101353.97;;;27.22;40.86
18784;BME280;9520;50.954;6.968;2022-07-24T01:58:45;101348.75;;;27.19;40.68
18784;BME280;9520;50.954;6.968;2022-07-24T01:59:08;101349.41;;;27.23;40.38
18784;BME280;9520;50.954;6.968;2022-07-24T01:59:33;101343.13;;;27.22;40.27
18784;BME280;9520;50.954;6.968;2022-07-24T01:59:55;101352.75;;;27.26;40.21